Historyczne dane pomiarowe

Dodano dane terminowe – wersja testowa.

Dane z okresu 1951-2018

Wersja bazy: 1.27 [2018-11-28, lista zmian], aktualizacja planowana na 2018-12-07

Dane meteo z obszaru Polski uzyskane na podstawie danych udostępnionych przez Instytut Meteorologii i Gospodarki Wodnej – Państwowy Instytut Badawczy.

 

Wybierz Datę:    

       

TemperaturaWilgotnośćWiatrCiśnienieOpadyŚniegCzas trwania zjawisk
 Stacja t tx tn tng RH VA  wxwx mslp ppp RRR   cm mm wxwxwxwxwxwxwx
1960-11-08 5.0 6.6 3.8 1.9 84.5- 8.0 2.0---- 0.0------------
1960-11-09 1.8 4.7 0.3 -1.2 96.3- 8.0 1.7---- 0.0------------
1960-11-10 3.5 9.1 1.3 1.0 84.5- 3.0 2.7---- 0.0------------
1960-11-11 3.2 10.6 -2.1 -3.4 86.0- 0.0 0.7---- 0.0------------
1960-11-12 7.4 9.5 -1.8 -3.8 76.5- 7.0 4.7---- 0.0------------
1960-11-13 9.0 11.8 7.2 6.1 79.8- 4.0 8.0---- 0.0------------
1960-11-14 4.7 8.3 2.5 3.6 85.5- 5.3 1.7---- 0.0------------
1960-11-15 3.0 10.8 -1.6 -5.0 83.0- 1.0 1.0---- 0.0------------
1960-11-16 4.8 7.3 -1.2 -3.6 91.0- 6.7 2.0---- 3.2------------
1960-11-17 2.6 7.4 0.9 -0.7 89.3- 2.7 0.7---- 0.0------------
1960-11-18 4.2 8.5 -0.6 -1.4 80.0- 4.7 2.7---- 0.8------------
1960-11-19 5.2 7.1 0.9 -1.9 81.8- 7.0 4.7---- 1.0------------
1960-11-20 4.6 7.2 3.5 1.7 86.8- 3.7 4.0---- 0.0------------
1960-11-21 4.4 5.8 1.9 -0.5 86.3- 8.0 1.7---- 0.0------------
1960-11-22 3.5 8.2 0.9 0.6 89.5- 3.3 3.7---- 0.0------------
1960-11-23 5.6 9.7 1.3 1.1 81.3- 3.3 2.3---- 0.0------------
1960-11-24 4.6 7.9 0.9 0.4 90.0- 8.0 0.0---- 0.0------------
1960-11-25 6.8 10.9 2.0 1.3 77.0- 0.0 3.3---- 0.0------------
1960-11-26 9.8 12.9 3.5 1.1 70.3- 3.3 8.3---- 0.0------------
1960-11-27 11.1 12.1 7.4 4.6 62.0- 4.0 4.7---- 0.9------------
1960-11-28 3.6 11.8 0.7 5.7 86.8- 7.7 2.0---- 3.6------------
1960-11-29 2.2 5.5 -0.5 -2.3 80.3- 3.3 4.0---- 0.0------------
1960-11-30 4.8 7.8 0.3 -1.3 85.5- 7.3 2.3---- 1.1------------
1960-12-01 5.2 13.6 -0.9 -2.0 73.0- 0.0 1.3---- 0.0------------
1960-12-02 3.7 10.5 -1.0 -3.0 76.0- 0.0 1.0---- 0.0------------
1960-12-03 6.3 8.5 -2.3 -3.6 61.5- 1.7 3.3---- 0.0------------
1960-12-04 10.0 14.4 6.6 3.8 55.5- 6.7 9.7---- 0.0------------
1960-12-05 9.1 12.3 7.6 5.6 66.5- 6.3 6.0---- 0.0------------
1960-12-06 7.8 11.8 6.3 3.1 81.8- 6.0 1.7---- 0.0------------
1960-12-07 9.0 14.0 3.2 0.4 76.3- 6.7 5.0---- 0.2------------
147.4 ms

 

Źródłem pochodzenia danych jest Instytut Meteorologii i Gospodarki Wodnej – Państwowy Instytut Badawczy. Dane Instytutu Meteorologii i Gospodarki Wodnej – Państwowego Instytutu Badawczego zostały przetworzone.

Dane źródłowe można odnaleźć na stronie https://dane.imgw.pl